createdAt,value
2022-12-16T00:00:15.712Z,14.70
2022-12-16T00:02:43.404Z,13.63
2022-12-16T00:05:10.898Z,13.93
2022-12-16T00:07:38.347Z,15.75
2022-12-16T00:10:05.965Z,14.02
2022-12-16T00:12:33.428Z,12.60
2022-12-16T00:15:00.883Z,13.23
2022-12-16T00:17:28.418Z,13.38
2022-12-16T00:19:55.853Z,13.32
2022-12-16T00:22:23.892Z,15.63
2022-12-16T00:24:54.589Z,13.32
2022-12-16T00:27:22.865Z,12.55
2022-12-16T00:29:50.342Z,13.10
2022-12-16T00:32:17.839Z,12.93
2022-12-16T00:34:45.201Z,11.82
2022-12-16T00:37:13.443Z,12.55
2022-12-16T00:39:40.880Z,11.68
2022-12-16T00:42:08.389Z,10.60
2022-12-16T00:44:35.790Z,11.18
2022-12-16T00:47:03.284Z,10.02
2022-12-16T00:49:30.684Z,8.93
2022-12-16T00:51:58.162Z,10.10
2022-12-16T00:54:25.579Z,9.73
2022-12-16T00:56:53.068Z,9.85
2022-12-16T00:59:21.292Z,11.35
2022-12-16T01:01:48.761Z,11.82
2022-12-16T01:04:16.374Z,11.75
2022-12-16T01:06:43.789Z,11.57
2022-12-16T01:09:11.256Z,11.77
2022-12-16T01:11:38.658Z,12.25
2022-12-16T01:14:06.146Z,12.85
2022-12-16T01:16:35.154Z,13.60
2022-12-16T01:19:02.694Z,12.60
2022-12-16T01:21:30.104Z,12.98
2022-12-16T01:23:57.529Z,12.82
2022-12-16T01:26:24.944Z,13.38
2022-12-16T01:28:52.404Z,12.85
2022-12-16T01:31:20.558Z,12.68
2022-12-16T01:33:48.090Z,13.15
2022-12-16T01:36:15.463Z,11.45
2022-12-16T01:38:44.431Z,11.27
2022-12-16T01:41:12.465Z,12.88
2022-12-16T01:43:40.737Z,12.07
2022-12-16T01:46:14.290Z,13.23
2022-12-16T01:52:27.636Z,10.68
2022-12-16T01:55:01.161Z,11.82
2022-12-16T01:57:31.821Z,11.48
2022-12-16T01:59:59.357Z,12.52
2022-12-16T02:02:27.312Z,12.15
2022-12-16T02:05:14.094Z,11.48
2022-12-16T02:07:41.525Z,13.55
2022-12-16T02:10:11.965Z,14.07
2022-12-16T02:12:57.118Z,12.93
2022-12-16T02:15:27.856Z,10.73
2022-12-16T02:18:07.057Z,12.68
2022-12-16T02:20:47.730Z,12.32
2022-12-16T02:23:24.379Z,13.00
2022-12-16T02:25:51.809Z,13.63
2022-12-16T02:28:38.472Z,12.77
2022-12-16T02:31:09.076Z,13.85
2022-12-16T02:33:42.490Z,14.02
2022-12-16T02:36:19.151Z,14.52
2022-12-16T02:38:46.562Z,14.82
2022-12-16T02:41:18.517Z,15.20
2022-12-16T02:44:05.871Z,16.25
2022-12-16T02:46:34.699Z,15.60
2022-12-16T02:49:06.225Z,15.70
2022-12-16T02:51:35.261Z,15.07
2022-12-16T02:54:03.010Z,15.95
2022-12-16T02:57:02.853Z,15.57
2022-12-16T02:59:38.897Z,12.95
2022-12-16T03:02:31.683Z,14.15
2022-12-16T03:05:03.777Z,18.83
2022-12-16T03:07:33.518Z,13.80
2022-12-16T03:10:01.954Z,13.10
2022-12-16T03:12:29.424Z,12.77
2022-12-16T03:14:56.993Z,14.00
2022-12-16T03:17:25.680Z,13.88
2022-12-16T03:19:59.266Z,14.13
2022-12-16T03:22:29.501Z,14.45
2022-12-16T03:24:57.218Z,14.45
2022-12-16T03:27:30.719Z,14.40
2022-12-16T03:30:04.302Z,14.35
2022-12-16T03:32:43.945Z,17.15
2022-12-16T03:35:20.713Z,14.00
2022-12-16T03:37:49.333Z,14.63
2022-12-16T03:40:17.333Z,12.75
2022-12-16T03:42:45.350Z,12.35
2022-12-16T03:45:16.996Z,14.82
2022-12-16T03:47:49.657Z,14.45
2022-12-16T03:50:17.945Z,15.18
2022-12-16T03:52:45.323Z,14.50
2022-12-16T03:55:12.873Z,14.15
2022-12-16T03:57:40.245Z,14.07
2022-12-16T04:00:08.183Z,13.52
2022-12-16T04:02:39.348Z,14.10
2022-12-16T04:05:07.420Z,15.27
2022-12-16T04:07:34.814Z,16.08
2022-12-16T04:10:02.365Z,15.43
2022-12-16T04:12:48.606Z,15.88
2022-12-16T04:15:35.117Z,15.80
2022-12-16T04:18:21.202Z,16.55
2022-12-16T04:21:09.303Z,15.68
2022-12-16T04:23:56.173Z,13.43
2022-12-16T04:26:23.833Z,17.10
2022-12-16T04:28:51.216Z,16.85
2022-12-16T04:31:18.731Z,16.70
2022-12-16T04:34:05.110Z,13.32
2022-12-16T04:36:51.236Z,14.45
2022-12-16T04:39:57.309Z,14.00
2022-12-16T04:42:43.419Z,15.18
2022-12-16T04:45:29.700Z,14.88
2022-12-16T04:48:16.035Z,14.27
2022-12-16T04:51:02.447Z,14.43
2022-12-16T04:53:48.488Z,13.70
2022-12-16T04:56:34.452Z,14.32
2022-12-16T04:59:37.387Z,12.00
2022-12-16T05:02:23.482Z,12.93
2022-12-16T05:05:09.712Z,13.82
2022-12-16T05:07:55.639Z,14.50
2022-12-16T05:10:42.016Z,14.88
2022-12-16T05:13:29.916Z,15.73
2022-12-16T05:16:16.576Z,15.07
2022-12-16T05:19:02.946Z,15.65
2022-12-16T05:21:48.918Z,14.38
2022-12-16T05:24:34.939Z,13.80
2022-12-16T05:27:21.395Z,14.70
2022-12-16T05:30:07.361Z,14.48
2022-12-16T05:32:53.616Z,14.15
2022-12-16T05:35:41.936Z,13.38
2022-12-16T05:38:28.178Z,14.00
2022-12-16T05:41:14.563Z,12.85
2022-12-16T05:44:00.610Z,15.15
2022-12-16T05:46:46.699Z,14.52
2022-12-16T05:49:33.137Z,13.45
2022-12-16T05:52:19.081Z,12.18
2022-12-16T05:55:04.946Z,11.48
2022-12-16T06:00:37.185Z,12.77
2022-12-16T06:03:23.398Z,11.60
2022-12-16T06:06:09.942Z,12.57
2022-12-16T06:08:56.054Z,13.35
2022-12-16T06:11:42.298Z,12.30
2022-12-16T06:14:28.581Z,12.20
2022-12-16T06:17:14.810Z,12.20
2022-12-16T06:20:01.042Z,12.43
2022-12-16T06:22:47.035Z,13.27
2022-12-16T06:25:33.346Z,13.80
2022-12-16T06:28:19.758Z,13.57
2022-12-16T06:31:05.646Z,22.38
2022-12-16T06:33:54.843Z,22.60
2022-12-16T06:36:41.171Z,18.60
2022-12-16T06:39:27.256Z,15.82
2022-12-16T06:42:13.161Z,14.20
2022-12-16T06:44:59.066Z,14.73
2022-12-16T06:47:45.298Z,13.13
2022-12-16T06:50:31.270Z,16.67
2022-12-16T06:53:17.710Z,14.95
2022-12-16T06:56:04.089Z,14.30
2022-12-16T06:58:51.785Z,15.20
2022-12-16T07:01:38.279Z,14.27
2022-12-16T07:04:24.251Z,16.90
2022-12-16T07:07:10.580Z,14.15
2022-12-16T07:09:56.876Z,12.63
2022-12-16T07:12:43.161Z,11.90
2022-12-16T07:15:29.667Z,13.95
2022-12-16T07:18:16.149Z,14.10
2022-12-16T07:21:02.294Z,16.15
2022-12-16T07:23:48.380Z,26.23
2022-12-16T07:26:34.722Z,18.48
2022-12-16T07:29:20.910Z,14.95
2022-12-16T07:32:07.008Z,13.90
2022-12-16T07:34:55.645Z,13.25
2022-12-16T07:37:41.925Z,13.88
2022-12-16T07:40:28.645Z,16.50
2022-12-16T07:43:14.905Z,17.27
2022-12-16T07:46:00.874Z,20.10
2022-12-16T07:48:46.969Z,19.25
2022-12-16T07:51:32.913Z,15.50
2022-12-16T07:54:19.337Z,14.95
2022-12-16T07:57:05.468Z,14.82
2022-12-16T07:59:51.811Z,13.98
2022-12-16T08:02:38.283Z,15.18
2022-12-16T08:05:24.553Z,13.80
2022-12-16T08:08:10.678Z,16.40
2022-12-16T08:10:56.760Z,14.57
2022-12-16T08:13:44.544Z,13.43
2022-12-16T08:16:30.706Z,14.93
2022-12-16T08:19:16.770Z,14.05
2022-12-16T08:22:02.895Z,13.77
2022-12-16T08:24:53.316Z,13.02
2022-12-16T08:27:40.097Z,13.90
2022-12-16T08:30:26.617Z,13.80
2022-12-16T08:33:18.832Z,12.55
2022-12-16T08:36:06.630Z,13.65
2022-12-16T08:38:52.952Z,15.52
2022-12-16T08:41:39.603Z,16.25
2022-12-16T08:44:25.610Z,13.85
2022-12-16T08:47:11.611Z,13.15
2022-12-16T08:50:01.661Z,18.00
2022-12-16T08:52:49.136Z,14.02
2022-12-16T08:55:35.168Z,16.00
2022-12-16T08:58:21.163Z,14.55
2022-12-16T09:01:08.219Z,14.85
2022-12-16T09:03:55.139Z,14.38
2022-12-16T09:06:41.562Z,15.90
2022-12-16T09:09:28.593Z,17.73
2022-12-16T09:12:14.649Z,13.82
2022-12-16T09:15:00.573Z,16.70
2022-12-16T09:17:46.653Z,17.67
2022-12-16T09:20:32.875Z,16.15
2022-12-16T09:23:22.860Z,14.35
2022-12-16T09:26:22.710Z,17.73
2022-12-16T09:29:08.867Z,15.70
2022-12-16T09:31:55.286Z,18.15
2022-12-16T09:34:42.162Z,17.20
2022-12-16T09:37:28.330Z,15.10
2022-12-16T09:40:14.403Z,16.70
2022-12-16T09:43:19.383Z,16.27
2022-12-16T09:46:08.879Z,15.40
2022-12-16T09:48:57.969Z,15.95
2022-12-16T09:51:44.781Z,14.95
2022-12-16T09:54:36.028Z,14.50
2022-12-16T09:57:22.715Z,15.07
2022-12-16T10:00:12.922Z,17.00
2022-12-16T10:03:03.393Z,15.90
2022-12-16T10:05:59.629Z,23.00
2022-12-16T10:08:54.241Z,15.75
2022-12-16T10:12:02.939Z,15.20
2022-12-16T10:14:56.094Z,19.40
2022-12-16T10:17:43.436Z,15.82
2022-12-16T10:20:37.818Z,14.77
2022-12-16T10:23:51.206Z,15.68
2022-12-16T10:26:46.474Z,13.80
2022-12-16T10:29:36.612Z,14.20
2022-12-16T10:32:42.715Z,15.80
2022-12-16T10:35:45.119Z,20.45
2022-12-16T10:38:41.643Z,17.35
2022-12-16T10:41:28.064Z,16.88
2022-12-16T10:44:15.189Z,16.60
2022-12-16T10:47:01.316Z,15.52
2022-12-16T10:49:52.347Z,15.98
2022-12-16T10:52:41.038Z,17.13
2022-12-16T10:55:36.763Z,15.25
2022-12-16T10:58:35.619Z,15.50
2022-12-16T11:01:32.842Z,15.18
2022-12-16T11:04:18.878Z,16.80
2022-12-16T11:07:04.756Z,16.27
2022-12-16T11:09:52.363Z,17.38
2022-12-16T11:12:42.010Z,17.42
2022-12-16T11:15:43.031Z,18.05
2022-12-16T11:18:31.072Z,19.95
2022-12-16T11:21:29.982Z,20.30
2022-12-16T11:24:35.675Z,20.20
2022-12-16T11:27:23.353Z,19.77
2022-12-16T11:30:14.289Z,20.27
2022-12-16T11:33:05.725Z,20.60
2022-12-16T11:35:52.983Z,20.95
2022-12-16T11:38:44.089Z,20.63
2022-12-16T11:41:35.003Z,21.88
2022-12-16T11:44:22.338Z,21.30
2022-12-16T11:47:08.682Z,22.85
2022-12-16T11:49:54.748Z,21.63
2022-12-16T11:52:42.471Z,22.33
2022-12-16T11:56:03.568Z,22.20
2022-12-16T11:58:58.959Z,22.17
2022-12-16T12:01:50.214Z,22.55
2022-12-16T12:04:37.123Z,22.80
2022-12-16T12:07:45.461Z,23.70
2022-12-16T12:10:39.581Z,21.55
2022-12-16T12:13:46.467Z,22.80
2022-12-16T12:16:36.587Z,25.30
2022-12-16T12:19:28.875Z,23.08
2022-12-16T12:22:14.952Z,24.13
2022-12-16T12:25:10.165Z,25.92
2022-12-16T12:28:01.674Z,26.37
2022-12-16T12:30:52.166Z,26.27
2022-12-16T12:33:53.110Z,22.98
2022-12-16T12:36:45.617Z,24.17
2022-12-16T12:39:54.373Z,25.13
2022-12-16T12:42:48.936Z,28.05
2022-12-16T12:45:54.581Z,35.10
2022-12-16T12:48:43.803Z,29.48
2022-12-16T12:51:52.527Z,35.40
2022-12-16T12:55:04.740Z,31.85
2022-12-16T12:57:53.400Z,33.92
2022-12-16T13:00:42.460Z,34.40
2022-12-16T13:03:52.012Z,34.35
2022-12-16T13:06:38.588Z,36.35
2022-12-16T13:09:42.813Z,34.15
2022-12-16T13:12:28.967Z,35.03
2022-12-16T13:15:27.037Z,36.38
2022-12-16T13:18:19.058Z,32.83
2022-12-16T13:21:06.022Z,36.65
2022-12-16T13:24:01.904Z,49.08
2022-12-16T13:26:49.272Z,34.92
2022-12-16T13:29:46.141Z,44.97
2022-12-16T13:32:41.378Z,40.33
2022-12-16T13:35:27.634Z,36.07
2022-12-16T13:38:18.740Z,36.42
2022-12-16T13:41:21.702Z,36.28
2022-12-16T13:44:18.159Z,36.03
2022-12-16T13:47:08.757Z,39.22
2022-12-16T13:50:03.688Z,34.55
2022-12-16T13:53:07.994Z,26.20
2022-12-16T13:56:06.433Z,26.10
2022-12-16T13:58:55.466Z,28.05
2022-12-16T14:01:51.199Z,26.55
2022-12-16T14:04:43.833Z,21.17
2022-12-16T14:07:30.496Z,20.58
2022-12-16T14:10:16.707Z,20.83
2022-12-16T14:13:05.754Z,22.95
2022-12-16T14:16:10.806Z,24.02
2022-12-16T14:18:59.949Z,26.48
2022-12-16T14:21:51.555Z,29.27
2022-12-16T14:24:43.248Z,28.88
2022-12-16T14:27:39.922Z,29.02
2022-12-16T14:30:52.182Z,31.95
2022-12-16T14:33:41.458Z,44.08
2022-12-16T14:36:44.371Z,34.20
2022-12-16T14:39:40.353Z,35.42
2022-12-16T14:42:39.501Z,34.85
2022-12-16T14:45:39.685Z,34.55
2022-12-16T14:48:47.479Z,35.03
2022-12-16T14:51:46.060Z,32.20
2022-12-16T14:54:54.624Z,25.77
2022-12-16T14:57:42.730Z,26.10
2022-12-16T15:00:28.839Z,27.70
2022-12-16T15:03:16.377Z,30.33
2022-12-16T15:06:03.666Z,30.17
2022-12-16T15:08:52.289Z,32.10
2022-12-16T15:11:39.177Z,39.00
2022-12-16T15:14:26.073Z,41.95
2022-12-16T15:17:13.019Z,41.80
2022-12-16T15:20:03.973Z,35.22
2022-12-16T15:22:50.815Z,34.55
2022-12-16T15:25:44.465Z,34.05
2022-12-16T15:28:59.530Z,34.17
2022-12-16T15:31:53.106Z,32.55
2022-12-16T15:34:39.378Z,36.65
2022-12-16T15:37:42.501Z,34.90
2022-12-16T15:40:54.687Z,33.42
2022-12-16T15:43:54.835Z,36.13
2022-12-16T15:46:47.239Z,32.58
2022-12-16T15:49:36.111Z,28.58
2022-12-16T15:52:22.590Z,31.52
2022-12-16T15:55:12.612Z,30.17
2022-12-16T15:57:58.812Z,28.38
2022-12-16T16:00:46.391Z,27.60
2022-12-16T16:03:44.062Z,28.65
2022-12-16T16:06:37.397Z,26.65
2022-12-16T16:09:32.210Z,27.45
2022-12-16T16:12:18.230Z,33.90
2022-12-16T16:15:04.552Z,34.70
2022-12-16T16:17:50.675Z,29.92
2022-12-16T16:20:37.454Z,33.03
2022-12-16T16:23:24.028Z,26.27
2022-12-16T16:26:10.233Z,24.02
2022-12-16T16:28:56.521Z,25.10
2022-12-16T16:31:42.754Z,26.10
2022-12-16T16:34:30.960Z,25.33
2022-12-16T16:37:17.755Z,38.20
2022-12-16T16:40:04.175Z,28.83
2022-12-16T16:42:50.297Z,29.38
2022-12-16T16:45:36.580Z,28.05
2022-12-16T16:48:29.593Z,30.45
2022-12-16T16:51:16.499Z,32.90
2022-12-16T16:54:03.034Z,27.25
2022-12-16T16:56:51.053Z,24.65
2022-12-16T16:59:37.129Z,24.65
2022-12-16T17:02:40.208Z,26.33
2022-12-16T17:05:27.150Z,25.92
2022-12-16T17:08:16.289Z,25.15
2022-12-16T17:11:02.539Z,25.10
2022-12-16T17:13:56.206Z,27.40
2022-12-16T17:16:42.415Z,26.67
2022-12-16T17:19:28.706Z,26.42
2022-12-16T17:22:14.961Z,25.13
2022-12-16T17:25:00.748Z,28.45
2022-12-16T17:30:39.755Z,27.08
2022-12-16T17:33:29.393Z,27.42
2022-12-16T17:36:15.295Z,24.73
2022-12-16T17:39:03.002Z,27.70
2022-12-16T17:41:50.395Z,28.92
2022-12-16T17:44:37.191Z,29.10
2022-12-16T17:47:23.230Z,31.42
2022-12-16T17:50:12.027Z,30.55
2022-12-16T17:52:59.735Z,28.88
2022-12-16T17:55:45.871Z,29.52
2022-12-16T17:58:32.000Z,29.02
2022-12-16T18:01:21.488Z,27.85
2022-12-16T18:04:08.045Z,31.40
2022-12-16T18:06:54.228Z,30.13
2022-12-16T18:09:40.578Z,30.77
2022-12-16T18:12:26.698Z,31.50
2022-12-16T18:15:12.825Z,31.10
2022-12-16T18:17:59.005Z,35.15
2022-12-16T18:20:45.264Z,36.05
2022-12-16T18:23:31.641Z,34.72
2022-12-16T18:26:21.819Z,33.28
2022-12-16T18:29:07.979Z,29.77
2022-12-16T18:31:54.242Z,31.95
2022-12-16T18:34:40.886Z,32.33
2022-12-16T18:37:30.497Z,34.15
2022-12-16T18:40:16.555Z,34.22
2022-12-16T18:43:02.530Z,33.03
2022-12-16T18:45:48.728Z,35.63
2022-12-16T18:48:34.688Z,33.58
2022-12-16T18:51:21.132Z,34.13
2022-12-16T18:54:09.364Z,36.17
2022-12-16T18:56:55.503Z,38.15
2022-12-16T18:59:41.562Z,36.30
2022-12-16T19:02:28.123Z,35.88
2022-12-16T19:05:14.561Z,36.58
2022-12-16T19:08:00.797Z,37.55
2022-12-16T19:10:46.866Z,38.83
2022-12-16T19:13:35.842Z,38.63
2022-12-16T19:16:22.178Z,38.63
2022-12-16T19:19:16.368Z,37.35
2022-12-16T19:22:05.816Z,39.05
2022-12-16T19:24:51.970Z,34.08
2022-12-16T19:27:38.415Z,34.60
2022-12-16T19:30:25.103Z,32.85
2022-12-16T19:33:11.226Z,32.75
2022-12-16T19:35:57.163Z,32.53
2022-12-16T19:38:44.134Z,37.88
2022-12-16T19:41:34.364Z,37.38
2022-12-16T19:44:20.691Z,35.30
2022-12-16T19:47:06.873Z,34.40
2022-12-16T19:49:53.406Z,34.85
2022-12-16T19:52:40.868Z,35.53
2022-12-16T19:55:27.076Z,37.50
2022-12-16T19:58:13.480Z,39.13
2022-12-16T20:01:00.044Z,39.35
2022-12-16T20:04:03.316Z,39.30
2022-12-16T20:06:51.709Z,36.08
2022-12-16T20:09:38.025Z,35.90
2022-12-16T20:12:24.142Z,34.45
2022-12-16T20:15:11.554Z,34.92
2022-12-16T20:17:57.902Z,34.05
2022-12-16T20:20:44.175Z,32.47
2022-12-16T20:23:30.229Z,32.22
2022-12-16T20:26:17.393Z,32.50
2022-12-16T20:29:03.851Z,29.67
2022-12-16T20:31:50.298Z,31.55
2022-12-16T20:34:36.579Z,30.17
2022-12-16T20:37:22.583Z,29.80
2022-12-16T20:40:08.927Z,29.77
2022-12-16T20:42:56.279Z,30.40
2022-12-16T20:45:42.302Z,29.73
2022-12-16T20:48:32.483Z,28.58
2022-12-16T20:51:25.858Z,27.48
2022-12-16T20:54:12.817Z,24.92
2022-12-16T20:56:59.128Z,25.27
2022-12-16T20:59:45.160Z,24.55
2022-12-16T21:02:34.554Z,24.95
2022-12-16T21:05:21.553Z,23.77
2022-12-16T21:08:07.417Z,24.13
2022-12-16T21:13:59.466Z,21.23
2022-12-16T21:16:45.487Z,23.95
2022-12-16T21:22:38.054Z,21.50
2022-12-16T21:25:24.918Z,22.50
2022-12-16T21:28:34.813Z,24.02
2022-12-16T21:31:20.727Z,23.58
2022-12-16T21:34:06.622Z,22.98
2022-12-16T21:36:52.934Z,23.55
2022-12-16T21:39:42.011Z,25.27
2022-12-16T21:42:34.669Z,25.27
2022-12-16T21:45:21.729Z,23.13
2022-12-16T21:48:11.639Z,25.73
2022-12-16T21:50:57.827Z,25.58
2022-12-16T21:53:44.090Z,27.65
2022-12-16T21:56:32.202Z,27.88
2022-12-16T21:59:29.046Z,28.15
2022-12-16T22:02:15.178Z,30.13
2022-12-16T22:05:01.306Z,30.50
2022-12-16T22:07:47.802Z,31.10
2022-12-16T22:10:33.782Z,29.02
2022-12-16T22:13:20.171Z,29.27
2022-12-16T22:16:18.827Z,28.50
2022-12-16T22:19:04.758Z,27.73
2022-12-16T22:21:50.856Z,24.35
2022-12-16T22:24:37.671Z,25.05
2022-12-16T22:27:23.840Z,25.10
2022-12-16T22:30:09.702Z,23.20
2022-12-16T22:36:02.104Z,23.60
2022-12-16T22:36:21.931Z,22.55
2022-12-16T22:38:51.257Z,23.15
2022-12-16T22:41:38.275Z,22.02
2022-12-16T22:44:24.310Z,21.83
2022-12-16T22:47:10.426Z,23.73
2022-12-16T22:49:56.360Z,23.58
2022-12-16T22:52:42.382Z,23.45
2022-12-16T22:55:28.318Z,22.92
2022-12-16T22:58:18.818Z,23.70
2022-12-16T23:01:04.788Z,23.65
2022-12-16T23:03:51.970Z,26.23
2022-12-16T23:06:38.289Z,29.27
2022-12-16T23:09:24.164Z,27.27
2022-12-16T23:12:10.753Z,25.90
2022-12-16T23:14:56.867Z,25.10
2022-12-16T23:17:42.907Z,24.85
2022-12-16T23:20:29.460Z,24.55
2022-12-16T23:23:15.880Z,26.77
2022-12-16T23:26:02.222Z,23.50
2022-12-16T23:28:48.318Z,25.25
2022-12-16T23:31:34.665Z,25.02
2022-12-16T23:34:20.700Z,24.80
2022-12-16T23:37:06.643Z,25.90
2022-12-16T23:39:53.610Z,25.02
2022-12-16T23:42:42.248Z,24.90
2022-12-16T23:45:28.528Z,30.10
2022-12-16T23:48:21.212Z,31.35
2022-12-16T23:51:07.547Z,30.38
2022-12-16T23:53:53.931Z,27.42
2022-12-16T23:56:43.066Z,26.90
2022-12-16T23:59:29.417Z,25.05
